Westgard — PDBQ — position and weather

sailwx.info

Track history (hours):
 
Tides and Currents Weather Stations Pressure Air Temp Water Temp Dewpoint Dewpoint Depression Visibility Wind Speed Wind Dir Waves Ship Positions

Westgard

Last reported at 2014-Nov-29 09:33 UTC. Time now 2014-Nov-29 09:41 UTC.
Position N 56°13' E 012°24'.

Length 89 m; draft 4.7 m.

Type: Ship. MMSI: 246457000.

Date/timePositionNaut miles runAvg speedWind from/ knotsBaromVisibWave heightAir tempDewpointWater temp
2014-Nov-29 09:33N 56°13' E 012°24'29 9.3
2014-Nov-29 06:24N 56°37' E 011°54'8 8.9
2014-Nov-29 05:33N 56°44' E 011°51'9 9.2
2014-Nov-29 04:33N 56°53' E 011°45'21 8.9
2014-Nov-29 02:14N 57°11' E 011°27'6 8.6
2014-Nov-29 01:33N 57°16' E 011°22'8 7.9
2014-Nov-29 00:33N 57°23' E 011°15'8 8.2
2014-Nov-28 23:33N 57°30' E 011°06'9 9.3
2014-Nov-28 22:33N 57°37' E 010°55'39 7.6
2014-Nov-28 17:28N 57°34' E 009°44'12910.0
2014-Nov-28 04:32N 55°48' E 007°28'9 9.6
2014-Nov-28 03:33N 55°42' E 007°16'10 9.2
2014-Nov-28 02:31N 55°36' E 007°03'9 9.0
2014-Nov-28 01:33N 55°31' E 006°51'9 8.9
2014-Nov-28 00:33N 55°25' E 006°38'243 9.3
2014-Nov-26 22:33N 53°33' E 000°27'1010.5
2014-Nov-26 21:33N 53°32' E 000°10'1111.1
2014-Nov-26 20:33N 53°37' W 000°07'9 8.8
2014-Nov-26 19:33N 53°44' W 000°18'3 2.4
2014-Nov-26 18:23N 53°43' W 000°22'0 0.0
2014-Nov-26 17:20N 53°43' W 000°22'0 0.0
2014-Nov-26 15:05N 53°43' W 000°22'0 0.0
2014-Nov-26 14:20N 53°43' W 000°22'0 0.0
2014-Nov-26 13:26N 53°43' W 000°22'0 0.0
2014-Nov-26 12:23N 53°43' W 000°22'0 0.0
2014-Nov-26 11:26N 53°43' W 000°22'0 0.0
2014-Nov-26 10:26N 53°43' W 000°22'0 0.0
2014-Nov-26 09:26N 53°43' W 000°22'0 0.0
2014-Nov-26 08:29N 53°43' W 000°22'0 0.0
2014-Nov-26 07:08N 53°43' W 000°22'0 0.0
2014-Nov-26 06:29N 53°43' W 000°22'0 0.0
2014-Nov-26 05:29N 53°43' W 000°22'0 0.0
2014-Nov-26 04:29N 53°43' W 000°22'0 0.0
2014-Nov-26 03:29N 53°43' W 000°22'0 0.0
2014-Nov-26 02:32N 53°43' W 000°22'0 0.0
2014-Nov-26 01:29N 53°43' W 000°22'0 0.0
2014-Nov-26 00:29N 53°43' W 000°22'0 0.0
2014-Nov-25 23:32N 53°43' W 000°22'0 0.0
2014-Nov-25 22:32N 53°43' W 000°22'0 0.0
2014-Nov-25 21:20N 53°43' W 000°22'0 0.0
2014-Nov-25 20:20N 53°43' W 000°22'0 0.0
2014-Nov-25 19:31N 53°43' W 000°22'0 0.0
2014-Nov-25 18:33N 53°43' W 000°22'5 5.2
2014-Nov-25 17:33N 53°41' W 000°14'1010.1
2014-Nov-25 16:33N 53°36' E 000°01'9 9.3
2014-Nov-25 15:34N 53°34' E 000°16'1110.8
2014-Nov-25 14:33N 53°45' E 000°17'1111.0
2014-Nov-25 13:33N 53°55' E 000°10'9 9.0
2014-Nov-25 12:33N 54°03' E 000°04'8 8.0
2014-Nov-25 11:33N 54°10' W 000°03'6 6.1
2014-Nov-25 10:33N 54°15' W 000°10'6 6.3
2014-Nov-25 09:33N 54°20' W 000°17'10 9.9
2014-Nov-25 08:33N 54°27' W 000°28'1111.0
2014-Nov-25 07:33N 54°35' W 000°41'1311.9
2014-Nov-25 06:25N 54°44' W 000°58'1011.9
2014-Nov-25 05:33N 54°51' W 001°12'6 0.4
2014-Nov-24 14:29N 54°54' W 001°22'0 0.0
2014-Nov-24 12:26N 54°54' W 001°22'0 0.0
2014-Nov-24 11:17N 54°54' W 001°22'0 0.0
2014-Nov-24 10:17N 54°54' W 001°22'0 0.0
2014-Nov-24 08:29N 54°54' W 001°22'1 0.0
2014-Nov-23 15:31N 54°55' W 001°22'5 4.9
2014-Nov-23 14:31N 54°57' W 001°14'9 8.9
2014-Nov-23 13:33N 54°59' W 000°60'9 8.9
2014-Nov-23 12:33N 55°02' W 000°45'416 9.0
2014-Nov-21 14:32N 57°49' E 010°43'1111.1
2014-Nov-21 13:33N 57°44' E 011°02'10 9.9
2014-Nov-21 12:33N 57°40' E 011°19'9 8.7
2014-Nov-21 11:33N 57°37' E 011°34'4 3.8
2014-Nov-21 10:33N 57°36' E 011°41'0 0.0
2014-Nov-21 09:33N 57°36' E 011°41'7 6.8
2014-Nov-21 08:33N 57°29' E 011°41'6410.7
2014-Nov-21 02:33N 56°29' E 012°19'1110.9
2014-Nov-21 01:33N 56°18' E 012°24'1110.9
2014-Nov-21 00:33N 56°08' E 012°32'1111.3
2014-Nov-20 23:33N 55°58' E 012°42'1110.6
2014-Nov-20 22:33N 55°48' E 012°42'1110.7
2014-Nov-20 21:33N 55°37' E 012°42'1010.4
2014-Nov-20 20:33N 55°27' E 012°42'9 9.4
2014-Nov-20 19:33N 55°17' E 012°47'1110.9
2014-Nov-20 18:33N 55°16' E 013°05'4410.7
2014-Nov-20 14:25N 55°19' E 014°23'1011.2
2014-Nov-20 13:30N 55°27' E 014°35'1311.3
2014-Nov-20 12:21N 55°33' E 014°55'4411.4
2014-Nov-20 08:30N 55°55' E 016°02'9010.8
2014-Nov-20 00:09N 57°11' E 017°30'  
Track history (hours):
 
Tides and Currents Weather Stations Pressure Air Temp Water Temp Dewpoint Dewpoint Depression Visibility Wind Speed Wind Dir Waves Ship Positions

Westgard

Last reported at 2014-Nov-29 09:33 UTC. Time now 2014-Nov-29 09:41 UTC.
Position N 56°13' E 012°24'.

Length 89 m; draft 4.7 m.

Type: Ship. MMSI: 246457000.

Date/timePositionNaut miles runAvg speedWind from/ knotsBaromVisibWave heightAir tempDewpointWater temp
2014-Nov-29 09:33N 56°13' E 012°24'29 9.3
2014-Nov-29 06:24N 56°37' E 011°54'8 8.9
2014-Nov-29 05:33N 56°44' E 011°51'9 9.2
2014-Nov-29 04:33N 56°53' E 011°45'21 8.9
2014-Nov-29 02:14N 57°11' E 011°27'6 8.6
2014-Nov-29 01:33N 57°16' E 011°22'8 7.9
2014-Nov-29 00:33N 57°23' E 011°15'8 8.2
2014-Nov-28 23:33N 57°30' E 011°06'9 9.3
2014-Nov-28 22:33N 57°37' E 010°55'39 7.6
2014-Nov-28 17:28N 57°34' E 009°44'12910.0
2014-Nov-28 04:32N 55°48' E 007°28'9 9.6
2014-Nov-28 03:33N 55°42' E 007°16'10 9.2
2014-Nov-28 02:31N 55°36' E 007°03'9 9.0
2014-Nov-28 01:33N 55°31' E 006°51'9 8.9
2014-Nov-28 00:33N 55°25' E 006°38'243 9.3
2014-Nov-26 22:33N 53°33' E 000°27'1010.5
2014-Nov-26 21:33N 53°32' E 000°10'1111.1
2014-Nov-26 20:33N 53°37' W 000°07'9 8.8
2014-Nov-26 19:33N 53°44' W 000°18'3 2.4
2014-Nov-26 18:23N 53°43' W 000°22'0 0.0
2014-Nov-26 17:20N 53°43' W 000°22'0 0.0
2014-Nov-26 15:05N 53°43' W 000°22'0 0.0
2014-Nov-26 14:20N 53°43' W 000°22'0 0.0
2014-Nov-26 13:26N 53°43' W 000°22'0 0.0
2014-Nov-26 12:23N 53°43' W 000°22'0 0.0
2014-Nov-26 11:26N 53°43' W 000°22'0 0.0
2014-Nov-26 10:26N 53°43' W 000°22'0 0.0
2014-Nov-26 09:26N 53°43' W 000°22'0 0.0
2014-Nov-26 08:29N 53°43' W 000°22'0 0.0
2014-Nov-26 07:08N 53°43' W 000°22'0 0.0
2014-Nov-26 06:29N 53°43' W 000°22'0 0.0
2014-Nov-26 05:29N 53°43' W 000°22'0 0.0
2014-Nov-26 04:29N 53°43' W 000°22'0 0.0
2014-Nov-26 03:29N 53°43' W 000°22'0 0.0
2014-Nov-26 02:32N 53°43' W 000°22'0 0.0
2014-Nov-26 01:29N 53°43' W 000°22'0 0.0
2014-Nov-26 00:29N 53°43' W 000°22'0 0.0
2014-Nov-25 23:32N 53°43' W 000°22'0 0.0
2014-Nov-25 22:32N 53°43' W 000°22'0 0.0
2014-Nov-25 21:20N 53°43' W 000°22'0 0.0
2014-Nov-25 20:20N 53°43' W 000°22'0 0.0
2014-Nov-25 19:31N 53°43' W 000°22'0 0.0
2014-Nov-25 18:33N 53°43' W 000°22'5 5.2
2014-Nov-25 17:33N 53°41' W 000°14'1010.1
2014-Nov-25 16:33N 53°36' E 000°01'9 9.3
2014-Nov-25 15:34N 53°34' E 000°16'1110.8
2014-Nov-25 14:33N 53°45' E 000°17'1111.0
2014-Nov-25 13:33N 53°55' E 000°10'9 9.0
2014-Nov-25 12:33N 54°03' E 000°04'8 8.0
2014-Nov-25 11:33N 54°10' W 000°03'6 6.1
2014-Nov-25 10:33N 54°15' W 000°10'6 6.3
2014-Nov-25 09:33N 54°20' W 000°17'10 9.9
2014-Nov-25 08:33N 54°27' W 000°28'1111.0
2014-Nov-25 07:33N 54°35' W 000°41'1311.9
2014-Nov-25 06:25N 54°44' W 000°58'1011.9
2014-Nov-25 05:33N 54°51' W 001°12'6 0.4
2014-Nov-24 14:29N 54°54' W 001°22'0 0.0
2014-Nov-24 12:26N 54°54' W 001°22'0 0.0
2014-Nov-24 11:17N 54°54' W 001°22'0 0.0
2014-Nov-24 10:17N 54°54' W 001°22'0 0.0
2014-Nov-24 08:29N 54°54' W 001°22'1 0.0
2014-Nov-23 15:31N 54°55' W 001°22'5 4.9
2014-Nov-23 14:31N 54°57' W 001°14'9 8.9
2014-Nov-23 13:33N 54°59' W 000°60'9 8.9
2014-Nov-23 12:33N 55°02' W 000°45'416 9.0
2014-Nov-21 14:32N 57°49' E 010°43'1111.1
2014-Nov-21 13:33N 57°44' E 011°02'10 9.9
2014-Nov-21 12:33N 57°40' E 011°19'9 8.7
2014-Nov-21 11:33N 57°37' E 011°34'4 3.8
2014-Nov-21 10:33N 57°36' E 011°41'0 0.0
2014-Nov-21 09:33N 57°36' E 011°41'7 6.8
2014-Nov-21 08:33N 57°29' E 011°41'6410.7
2014-Nov-21 02:33N 56°29' E 012°19'1110.9
2014-Nov-21 01:33N 56°18' E 012°24'1110.9
2014-Nov-21 00:33N 56°08' E 012°32'1111.3
2014-Nov-20 23:33N 55°58' E 012°42'1110.6
2014-Nov-20 22:33N 55°48' E 012°42'1110.7
2014-Nov-20 21:33N 55°37' E 012°42'1010.4
2014-Nov-20 20:33N 55°27' E 012°42'9 9.4
2014-Nov-20 19:33N 55°17' E 012°47'1110.9
2014-Nov-20 18:33N 55°16' E 013°05'4410.7
2014-Nov-20 14:25N 55°19' E 014°23'1011.2
2014-Nov-20 13:30N 55°27' E 014°35'1311.3
2014-Nov-20 12:21N 55°33' E 014°55'4411.4
2014-Nov-20 08:30N 55°55' E 016°02'9010.8
2014-Nov-20 00:09N 57°11' E 017°30'  

Dump ship's entire track history